Latest Weather Observations for Mount Crawford

IDS60901

Issued at 2:11 pm CDT Friday 12 February 2016 (issued every 10 minutes, with the page automatically refreshed every 10 minutes)

About weather observations | Map of Adelaide area stations | Latest observations for Adelaide area | Other Formats
Station Details ID: 023878 Name: MOUNT CRAWFORD AWS Lat: -34.73 Lon: 138.93 Height: 525.0 m
Data from the previous 72 hours. | See also: Recent months at Mount Crawford
Date/Time
CDT
Tmp

°C
App
Tmp
°C
Dew
Point
°C
Rel
Hum
%
Delta-T

°C
Wind Press
QNH
hPa
Press
MSL
hPa
Rain
since
9 am
mm
Dir
 
Spd
km/h
Gust
km/h
Spd
kts
Gust
kts
12/02:00pm 30.6 27.3 6.5 22 13.2 NW 13 22 7 12 1014.7 1012.5 0.0
12/01:30pm 29.2 25.1 6.0 23 12.5 W 17 30 9 16 1014.9 1012.7 0.0
12/01:00pm 29.8 25.4 6.5 23 12.7 W 19 28 10 15 1015.2 1012.9 0.0
12/12:30pm 29.5 26.4 7.4 25 12.2 NW 13 19 7 10 1015.5 1013.2 0.0
12/12:00pm 28.2 25.0 6.9 26 11.6 N 13 22 7 12 1015.9 1013.6 0.0
12/11:30am 27.7 24.2 7.0 27 11.3 NW 15 22 8 12 1016.0 1013.7 0.0
12/11:00am 26.4 23.8 9.3 34 9.6 NNE 13 20 7 11 1016.2 1013.9 0.0
12/10:30am 25.1 23.5 10.2 39 8.4 NE 9 17 5 9 1016.4 1014.2 0.0
12/10:00am 24.2 22.6 11.5 45 7.3 ENE 11 15 6 8 1016.4 1014.2 0.0
12/09:30am 21.5 19.6 12.9 58 5.0 E 15 20 8 11 1016.6 1014.4 0.0
12/09:00am 20.0 17.6 12.7 63 4.2 E 17 20 9 11 1016.6 1014.4 0.0
12/08:30am 19.1 16.2 12.4 65 3.8 ESE 19 22 10 12 1016.5 1014.3 0.0
12/08:00am 17.4 14.5 12.3 72 2.9 ESE 19 22 10 12 1016.4 1014.2 0.0
12/07:30am 15.4 12.5 12.9 85 1.4 ESE 20 24 11 13 1016.2 1013.9 0.0
12/07:00am 14.9 11.2 12.8 87 1.2 ESE 24 28 13 15 1016.0 1013.7 0.0
12/06:30am 14.1 10.4 12.7 91 0.8 ESE 24 28 13 15 1015.7 1013.4 0.0
12/06:00am 13.5 9.9 12.9 96 0.3 ESE 24 30 13 16 1015.4 1013.1 0.0
12/05:30am 13.3 9.6 12.7 96 0.3 ESE 24 32 13 17 1015.3 1013.0 0.0
12/05:00am 13.5 9.4 12.7 95 0.4 SE 26 33 14 18 1015.2 1012.9 0.0
12/04:30am 13.5 9.2 12.2 92 0.7 ESE 26 32 14 17 1014.9 1012.7 0.0
12/04:00am 14.1 9.8 12.0 87 1.2 SE 26 32 14 17 1014.9 1012.7 0.0
12/03:30am 14.5 9.7 11.5 82 1.6 SE 28 33 15 18 1014.9 1012.7 0.0
12/03:00am 14.2 9.7 11.4 83 1.5 SE 26 33 14 18 1015.2 1012.9 0.0
12/02:30am 14.1 9.3 11.6 85 1.4 SE 28 33 15 18 1015.4 1013.1 0.0
12/02:00am 14.1 8.9 11.6 85 1.4 SE 30 37 16 20 1015.7 1013.4 0.0
12/01:30am 14.1 8.6 12.0 87 1.2 SSE 32 41 17 22 1015.9 1013.6 0.0
12/01:00am 13.6 8.0 12.2 91 0.8 SE 33 43 18 23 1016.1 1013.8 0.0
12/12:30am 13.9 7.8 11.9 88 1.1 SE 35 46 19 25 1016.2 1013.9 0.0
12/12:00am 14.0 8.3 11.7 86 1.3 SE 33 46 18 25 1016.4 1014.2 0.0
 
Date/Time
CDT
Tmp

°C
App
Tmp
°C
Dew
Point
°C
Rel
Hum
%
Delta-T

°C
Wind Press
QNH
hPa
Press
MSL
hPa
Rain
since
9 am
mm
Dir
 
Spd
km/h
Gust
km/h
Spd
kts
Gust
kts
11/11:30pm 13.7 8.1 12.1 90 0.9 SE 33 41 18 22 1016.5 1014.3 0.0
11/11:00pm 14.0 8.5 12.0 88 1.1 SSE 32 43 17 23 1016.7 1014.5 0.0
11/10:30pm 14.2 8.2 12.1 87 1.2 SE 35 44 19 24 1016.8 1014.6 0.0
11/10:00pm 14.3 8.3 12.0 86 1.3 SSE 35 44 19 24 1016.7 1014.5 0.0
11/09:30pm 14.7 8.7 12.2 85 1.4 SE 35 43 19 23 1016.4 1014.2 0.0
11/09:00pm 15.4 9.5 12.3 82 1.7 SE 35 43 19 23 1016.2 1013.9 0.0
11/08:30pm 16.4 12.1 12.0 75 2.5 SE 26 32 14 17 1016.1 1013.8 0.0
11/08:00pm 17.9 12.7 11.7 67 3.5 SE 30 43 16 23 1016.0 1013.7 0.0
11/07:30pm 20.4 15.6 11.6 57 5.0 SE 28 37 15 20 1015.8 1013.5 0.0
11/07:00pm 21.6 16.7 9.8 47 6.5 SE 26 35 14 19 1015.5 1013.2 0.0
11/06:30pm 23.4 19.2 9.8 42 7.6 SE 22 32 12 17 1015.4 1013.1 0.0
11/06:00pm 24.2 20.2 9.0 38 8.4 SE 20 30 11 16 1015.3 1013.0 0.0
11/05:30pm 25.6 21.7 8.6 34 9.4 SE 19 28 10 15 1015.1 1012.8 0.0
11/05:00pm 25.9 20.9 8.0 32 9.8 SE 24 33 13 18 1015.1 1012.8 0.0
11/04:30pm 26.8 22.5 6.8 28 10.8 SSE 19 26 10 14 1015.2 1012.9 0.0
11/04:00pm 27.0 22.8 7.5 29 10.7 SE 19 24 10 13 1015.4 1013.1 0.0
11/03:30pm 27.1 23.3 7.5 29 10.7 SE 17 30 9 16 1015.5 1013.2 0.0
11/03:00pm 26.8 22.9 7.3 29 10.6 SE 17 30 9 16 1015.7 1013.4 0.0
11/02:30pm 27.0 23.2 7.5 29 10.7 SE 17 28 9 15 1015.8 1013.5 0.0
11/02:00pm 27.3 23.4 7.2 28 11.0 ESE 17 28 9 15 1015.9 1013.6 0.0
11/01:30pm 26.2 22.3 7.3 30 10.2 ESE 17 26 9 14 1016.2 1013.9 0.0
11/01:00pm 27.2 23.0 8.1 30 10.6 SE 20 30 11 16 1016.4 1014.2 0.0
11/12:30pm 25.4 20.6 7.5 32 9.7 ESE 22 30 12 16 1016.5 1014.3 0.0
11/12:00pm 24.3 18.9 7.9 35 8.9 ESE 26 33 14 18 1016.4 1014.2 0.0
11/11:30am 23.7 18.1 7.3 35 8.8 ESE 26 33 14 18 1016.6 1014.4 0.0
11/11:00am 23.0 17.6 9.4 42 7.5 ESE 28 35 15 19 1016.7 1014.5 0.0
11/10:30am 21.7 17.5 11.1 51 6.0 ESE 24 32 13 17 1017.1 1014.8 0.0
11/10:00am 20.2 15.8 11.7 58 4.8 ESE 26 35 14 19 1017.2 1014.9 0.0
11/09:30am 18.5 13.9 12.3 67 3.5 ESE 28 37 15 20 1017.4 1015.1 0.0
11/09:00am 16.5 11.1 12.1 75 2.5 SE 32 43 17 23 1017.1 1014.8 0.0
11/08:30am 14.8 9.5 12.5 86 1.3 SE 32 43 17 23 1016.9 1014.7 0.0
11/08:00am 13.9 8.8 13.1 95 0.5 SE 32 44 17 24 1016.7 1014.5 0.0
11/07:30am 12.9 7.7 12.7 99 0.1 SE 32 43 17 23 1016.3 1014.1 0.0
11/07:00am 12.3 6.3 12.1 99 0.1 SE 35 44 19 24 1016.1 1013.8 0.0
11/06:30am 12.4 7.0 12.2 99 0.1 SE 32 39 17 21 1015.7 1013.4 0.0
11/06:00am 12.4 6.8 12.2 99 0.1 SE 33 44 18 24 1015.6 1013.3 0.0
11/05:30am 12.5 7.1 12.3 99 0.1 SE 32 43 17 23 1015.3 1013.0 0.0
11/05:00am 12.6 7.3 12.4 99 0.1 SE 32 41 17 22 1015.2 1012.9 0.0
11/04:30am 12.7 6.8 12.5 99 0.1 SE 35 44 19 24 1014.9 1012.7 0.0
11/04:00am 12.9 7.5 12.7 99 0.1 SE 33 41 18 22 1014.8 1012.6 0.0
11/03:30am 12.9 7.6 12.6 98 0.2 SE 32 43 17 23 1014.8 1012.6 0.0
11/03:00am 13.0 7.3 11.9 93 0.6 SE 33 44 18 24 1014.6 1012.4 0.0
11/02:30am 13.3 7.4 11.2 87 1.1 SE 33 43 18 23 1014.9 1012.7 0.0
11/02:00am 13.8 7.4 10.8 82 1.6 SE 35 43 19 23 1015.2 1012.9 0.0
11/01:30am 13.7 8.0 11.0 84 1.5 SE 32 39 17 21 1015.5 1013.2 0.0
11/01:00am 13.7 8.0 11.0 84 1.5 SE 32 41 17 22 1015.6 1013.3 0.0
11/12:30am 14.5 8.2 9.7 73 2.5 SE 33 43 18 23 1015.7 1013.4 0.0
11/12:00am 15.4 8.6 7.7 60 3.9 SE 33 43 18 23 1015.7 1013.4 0.0
 
Date/Time
CDT
Tmp

°C
App
Tmp
°C
Dew
Point
°C
Rel
Hum
%
Delta-T

°C
Wind Press
QNH
hPa
Press
MSL
hPa
Rain
since
9 am
mm
Dir
 
Spd
km/h
Gust
km/h
Spd
kts
Gust
kts
10/11:30pm 15.8 8.8 6.0 52 4.9 SE 32 39 17 21 1015.7 1013.4 0.0
10/11:00pm 15.3 8.8 8.3 63 3.6 SE 32 43 17 23 1015.9 1013.6 0.0
10/10:30pm 15.4 9.5 10.4 72 2.7 SE 32 44 17 24 1016.0 1013.7 0.0
10/10:00pm 15.4 9.3 10.4 72 2.7 SE 33 44 18 24 1015.8 1013.5 0.0
10/09:30pm 16.1 9.8 9.1 63 3.7 SE 32 43 17 23 1015.7 1013.4 0.0
10/09:00pm 16.4 10.1 9.1 62 3.9 SE 32 43 17 23 1015.5 1013.2 0.0
10/08:30pm 17.5 10.3 6.1 47 5.7 SE 33 46 18 25 1015.4 1013.1 0.0
10/08:00pm 18.0 12.5 9.1 56 4.8 SE 28 39 15 21 1015.3 1013.0 0.0
10/07:30pm 19.3 14.0 9.8 54 5.2 SE 28 37 15 20 1015.1 1012.8 0.0
10/07:00pm 21.6 16.5 9.2 45 6.8 SE 26 35 14 19 1014.9 1012.7 0.0
10/06:30pm 23.1 18.5 9.8 43 7.4 SE 24 33 13 18 1014.7 1012.5 0.0
10/06:00pm 24.4 19.7 9.2 38 8.4 SE 24 35 13 19 1014.5 1012.2 0.0
10/05:30pm 25.1 20.5 9.8 38 8.6 SE 24 32 13 17 1014.4 1012.1 0.0
10/05:00pm 26.7 22.1 9.5 34 9.7 SE 24 35 13 19 1014.2 1011.9 0.0
10/04:30pm 28.6 24.4 9.8 31 10.8 SE 22 30 12 16 1014.0 1011.7 0.0
10/04:00pm 30.1 27.4 7.3 24 12.6 E 11 19 6 10 1014.2 1011.9 0.0
10/03:30pm 30.4 27.2 7.0 23 12.9 NW 13 20 7 11 1014.3 1012.0 0.0
10/03:00pm 29.1 26.0 7.1 25 12.1 E 13 24 7 13 1014.6 1012.4 0.0
10/02:30pm 29.5 25.8 8.0 26 12.0 ESE 17 28 9 15 1015.1 1012.8 0.0
10/02:00pm 28.2 24.3 6.9 26 11.6 S 17 30 9 16 1015.2 1012.9 0.0
10/01:30pm 28.5 25.0 7.1 26 11.7 SSE 15 24 8 13 1015.6 1013.3 0.0
10/01:00pm 27.8 24.9 6.6 26 11.5 SSE 11 19 6 10 1015.8 1013.5 0.0
10/12:30pm 27.0 23.8 6.9 28 10.9 SE 13 24 7 13 1016.1 1013.8 0.0
10/12:00pm 26.5 22.8 6.5 28 10.7 ESE 15 26 8 14 1016.4 1014.2 0.0
10/11:30am 27.0 23.7 4.7 24 11.6 E 11 19 6 10 1016.8 1014.6 0.0
10/11:00am 25.6 21.2 4.7 26 10.8 E 17 22 9 12 1016.7 1014.5 0.0
10/10:30am 24.8 19.9 4.0 26 10.5 ESE 19 26 10 14 1016.7 1014.5 0.0
10/10:00am 24.2 19.3 5.1 29 9.9 E 20 28 11 15 1016.7 1014.5 0.0
10/09:30am 23.6 18.3 3.0 26 10.2 E 20 28 11 15 1016.7 1014.5 0.0
10/09:00am 22.2 16.3 1.8 26 9.8 ESE 22 28 12 15 1016.6 1014.4 0.0
10/08:30am 21.0 15.5 1.8 28 9.1 ESE 20 28 11 15 1016.6 1014.4 0.0
10/08:00am 20.1 14.5 1.0 28 8.9 ESE 20 28 11 15 1016.2 1013.9 0.0
10/07:30am 18.8 13.6 3.8 37 7.3 ESE 20 24 11 13 1016.2 1013.9 0.0
10/07:00am 17.4 12.2 2.6 37 6.9 ESE 19 22 10 12 1015.9 1013.6 0.0
10/06:30am 17.9 12.1 -0.4 29 8.1 ESE 20 24 11 13 1015.7 1013.4 0.0
10/06:00am 17.6 11.7 -0.6 29 8.0 SE 20 24 11 13 1015.7 1013.4 0.0
10/05:30am 18.4 12.0 -2.0 25 8.8 SE 22 30 12 16 1015.4 1013.1 0.0
10/05:00am 18.2 12.1 0.4 30 8.0 SE 22 28 12 15 1015.3 1013.0 0.0
10/04:30am 18.0 11.6 1.1 32 7.7 SE 24 32 13 17 1015.4 1013.1 0.0
10/04:00am 18.4 11.7 1.4 32 7.8 SSE 26 35 14 19 1015.4 1013.1 0.0
10/03:30am 18.3 11.3 2.2 34 7.5 SE 28 33 15 18 1015.4 1013.1 0.0
10/03:00am 18.4 11.7 1.4 32 7.8 SE 26 30 14 16 1015.5 1013.2 0.0
10/02:30am 18.6 12.3 3.6 37 7.2 SE 26 35 14 19 1015.7 1013.4 0.0
10/02:00am 18.0 12.1 5.9 45 6.1 SE 26 35 14 19 1015.9 1013.6 0.0
10/01:30am 17.5 11.9 7.3 51 5.3 SE 26 35 14 19 1016.2 1013.9 0.0
10/01:00am 17.3 10.3 6.2 48 5.6 SE 32 39 17 21 1016.6 1014.4 0.0
10/12:30am 17.8 11.1 5.7 45 6.1 SE 30 39 16 21 1016.8 1014.6 0.0
10/12:00am 17.5 10.3 0.6 32 7.6 SE 28 37 15 20 1016.8 1014.6 0.0
 
Date/Time
CDT
Tmp

°C
App
Tmp
°C
Dew
Point
°C
Rel
Hum
%
Delta-T

°C
Wind Press
QNH
hPa
Press
MSL
hPa
Rain
since
9 am
mm
Dir
 
Spd
km/h
Gust
km/h
Spd
kts
Gust
kts
09/11:30pm 18.0 10.9 1.1 32 7.7 SE 28 35 15 19 1017.1 1014.8 0.0
09/11:00pm 18.3 12.1 4.5 40 6.8 SE 26 33 14 18 1017.3 1015.0 0.0
09/10:30pm 18.7 12.7 5.5 42 6.6 SE 26 35 14 19 1017.5 1015.2 0.0
09/10:00pm 19.0 13.4 7.1 46 6.2 SE 26 32 14 17 1017.5 1015.2 0.0
09/09:30pm 20.7 15.0 4.7 35 8.0 SE 24 32 13 17 1017.3 1015.0 0.0
09/09:00pm 20.8 14.8 7.1 41 7.2 SE 28 33 15 18 1017.2 1014.9 0.0
09/08:30pm 20.7 16.2 10.2 51 5.8 SE 24 30 13 16 1017.3 1015.0 0.0
09/08:00pm 22.0 18.7 11.7 52 5.9 SE 20 26 11 14 1017.3 1015.0 0.0
09/07:30pm 23.8 20.2 11.8 47 6.9 SE 22 28 12 15 1017.2 1014.9 0.0
09/07:00pm 25.4 22.1 11.6 42 8.0 ESE 20 26 11 14 1017.2 1014.9 0.0
09/06:30pm 26.6 22.9 11.5 39 8.8 SE 22 30 12 16 1017.2 1014.9 0.0
09/06:00pm 27.5 23.0 10.2 34 9.9 ESE 24 35 13 19 1017.1 1014.8 0.0
09/05:30pm 29.3 24.6 9.4 29 11.3 ESE 24 33 13 18 1017.1 1014.8 0.0
09/05:00pm 32.8 28.7 4.6 17 15.2 SW 15 26 8 14 1017.2 1014.9 0.0
09/04:30pm 32.2 27.8 4.9 18 14.7 WSW 17 33 9 18 1017.4 1015.1 0.0
09/04:00pm 32.2 27.7 4.1 17 14.9 SW 17 26 9 14 1017.7 1015.4 0.0
09/03:30pm 31.9 26.9 3.8 17 14.8 WNW 19 28 10 15 1017.8 1015.5 0.0
09/03:00pm 31.5 27.4 4.3 18 14.4 WSW 15 26 8 14 1018.1 1015.9 0.0
09/02:30pm 31.1 27.1 4.8 19 14.0 NNW 15 26 8 14 1018.5 1016.3 0.0

Latest Capital City Observations: Canberra | Sydney | Melbourne | Brisbane | Adelaide | Perth | Hobart | Darwin

Other Formats:

Comma delimited format used in spreadsheet applications
http://www.bom.gov.au/fwo/IDS60901/IDS60901.94678.axf

JavaScript Object Notation format (JSON) in row-major order
http://www.bom.gov.au/fwo/IDS60901/IDS60901.94678.json